Time;durP1;ratioP1;P1;durP2;ratioP2;P2;SDS_P1;SDS_P2;PMS_P1;PMS_P2;Temp;Humidity;BMP_temperature;BMP_pressure;BME280_temperature;BME280_humidity;BME280_pressure;Samples;Min_cycle;Max_cycle;Signal;HPM_P1;HPM_P2
2023/09/03 00:00:52;;;;;;;9.80;8.02;;;;;;;15.08;100.00;102448.88;5032943;28;20079;-87
2023/09/03 00:03:17;;;;;;;9.93;7.97;;;;;;;15.05;100.00;102448.91;5038496;28;20032;-87
2023/09/03 00:05:51;;;;;;;10.25;7.60;;;;;;;15.01;100.00;102438.53;5031525;28;20046;-87
2023/09/03 00:08:16;;;;;;;10.52;8.00;;;;;;;14.99;100.00;102442.03;5029401;28;21004;-87
2023/09/03 00:10:42;;;;;;;9.48;7.75;;;;;;;14.98;100.00;102438.56;5014896;28;20469;-86
2023/09/03 00:13:07;;;;;;;10.85;7.72;;;;;;;14.95;100.00;102441.25;5032690;28;20079;-87
2023/09/03 00:15:32;;;;;;;12.32;7.57;;;;;;;14.90;100.00;102443.06;5014199;28;20423;-87
2023/09/03 00:17:58;;;;;;;9.65;7.38;;;;;;;14.88;100.00;102434.38;5032691;28;20065;-87
2023/09/03 00:20:23;;;;;;;11.18;8.25;;;;;;;14.84;100.00;102433.56;5034491;28;20496;-87
2023/09/03 00:22:48;;;;;;;9.52;7.75;;;;;;;14.81;100.00;102432.78;5032287;28;20021;-87
2023/09/03 00:25:14;;;;;;;9.02;7.25;;;;;;;14.79;100.00;102439.81;5032370;28;20025;-87
2023/09/03 00:27:39;;;;;;;9.75;6.93;;;;;;;14.77;100.00;102441.56;5032012;28;20369;-86
2023/09/03 00:30:05;;;;;;;7.97;6.55;;;;;;;14.77;100.00;102449.44;5032584;28;20496;-87
2023/09/03 00:32:30;;;;;;;8.38;7.20;;;;;;;14.75;100.00;102443.34;5014919;28;20033;-86
2023/09/03 00:34:55;;;;;;;10.20;7.43;;;;;;;14.70;100.00;102446.06;5014958;28;20069;-87
2023/09/03 00:37:20;;;;;;;8.45;7.07;;;;;;;14.66;100.00;102442.59;5027543;28;20093;-87
2023/09/03 00:39:46;;;;;;;8.45;7.13;;;;;;;14.66;100.00;102449.59;5032367;28;20041;-87
2023/09/03 00:42:11;;;;;;;7.95;6.63;;;;;;;14.65;100.00;102453.97;5032369;28;20025;-86
2023/09/03 00:44:36;;;;;;;9.23;6.90;;;;;;;14.61;100.00;102449.66;5032236;28;20041;-87
2023/09/03 00:47:02;;;;;;;8.10;7.15;;;;;;;14.56;100.00;102451.50;5029761;28;20386;-87
2023/09/03 00:49:28;;;;;;;8.20;7.00;;;;;;;14.52;100.00;102458.53;5023672;28;20037;-87
2023/09/03 00:51:55;;;;;;;9.43;6.97;;;;;;;14.50;100.00;102460.31;5032262;28;20539;-86
2023/09/03 00:54:22;;;;;;;9.38;7.40;;;;;;;14.50;100.00;102459.47;5032728;28;20060;-87
2023/09/03 00:56:49;;;;;;;7.13;6.18;;;;;;;14.48;100.00;102463.88;5031855;28;20436;-87
2023/09/03 00:59:15;;;;;;;8.90;6.53;;;;;;;14.46;100.00;102476.13;5032419;28;20469;-86
2023/09/03 01:01:42;;;;;;;8.68;6.50;;;;;;;14.42;100.00;102481.38;5032345;28;20453;-86
2023/09/03 01:04:07;;;;;;;9.80;7.30;;;;;;;14.39;100.00;102473.56;5032145;28;20377;-86
2023/09/03 01:06:32;;;;;;;9.00;6.80;;;;;;;14.38;100.00;102478.84;5029573;28;20022;-86
2023/09/03 01:08:58;;;;;;;11.13;7.47;;;;;;;14.36;100.00;102478.00;5024005;28;20053;-87
2023/09/03 01:11:46;;;;;;;8.43;7.03;;;;;;;14.34;100.00;102477.16;5032498;28;20032;-86
2023/09/03 01:14:12;;;;;;;7.97;6.75;;;;;;;14.30;100.00;102476.34;5032384;28;20075;-87
2023/09/03 01:17:00;;;;;;;7.63;6.18;;;;;;;14.27;100.00;102458.91;5033078;28;20022;-87
2023/09/03 01:19:28;;;;;;;6.88;6.03;;;;;;;14.23;100.00;102459.00;5036361;28;20061;-87
2023/09/03 01:22:04;;;;;;;6.88;6.18;;;;;;;14.21;100.00;102456.41;5036260;28;20033;-86
2023/09/03 01:24:42;;;;;;;6.65;5.47;;;;;;;14.19;100.00;102457.31;5016632;28;20076;-87
2023/09/03 01:27:25;;;;;;;7.05;6.00;;;;;;;14.18;100.00;102453.84;5026344;28;20033;-87
2023/09/03 01:29:52;;;;;;;9.15;6.15;;;;;;;14.17;100.00;102457.34;5036368;28;20112;-86
2023/09/03 01:32:18;;;;;;;8.52;5.93;;;;;;;14.16;100.00;102468.69;5036119;28;20030;-86
2023/09/03 01:34:45;;;;;;;8.45;6.70;;;;;;;14.15;100.00;102468.72;5035986;28;20029;-86
2023/09/03 01:37:12;;;;;;;10.73;6.85;;;;;;;14.13;100.00;102462.66;5029309;28;20029;-87
2023/09/03 01:39:38;;;;;;;8.50;6.88;;;;;;;14.09;100.00;102460.06;5018967;28;20088;-87
2023/09/03 01:42:04;;;;;;;9.32;7.28;;;;;;;14.08;100.00;102460.97;5016193;28;20022;-87
2023/09/03 01:44:29;;;;;;;9.10;7.70;;;;;;;14.07;100.00;102464.47;5032586;28;20040;-84
2023/09/03 01:47:06;;;;;;;9.23;7.18;;;;;;;14.05;100.00;102460.16;5028696;28;20022;-87
2023/09/03 01:49:46;;;;;;;9.45;7.03;;;;;;;14.01;100.00;102456.69;5035418;28;20025;-87
2023/09/03 01:52:35;;;;;;;8.73;7.00;;;;;;;14.01;100.00;102459.31;5035582;28;20033;-87
2023/09/03 01:55:04;;;;;;;8.65;6.95;;;;;;;13.99;100.00;102455.88;5034914;28;20481;-87
2023/09/03 01:57:34;;;;;;;10.70;7.68;;;;;;;14.00;100.00;102461.94;5033895;28;20060;-87
2023/09/03 02:00:04;;;;;;;10.30;7.15;;;;;;;13.98;100.00;102468.94;5020953;28;20091;-86
2023/09/03 02:02:31;;;;;;;9.02;7.22;;;;;;;13.94;100.00;102478.59;5035142;28;20021;-87
2023/09/03 02:04:56;;;;;;;10.57;6.72;;;;;;;13.92;100.00;102489.06;5034917;28;20453;-87
2023/09/03 02:07:21;;;;;;;8.10;6.38;;;;;;;13.89;100.00;102481.28;5034503;28;20108;-87
2023/09/03 02:09:46;;;;;;;7.32;6.05;;;;;;;13.87;100.00;102492.66;5030016;28;20030;-87
2023/09/03 02:12:12;;;;;;;6.97;6.22;;;;;;;13.80;100.00;102482.28;5035217;28;20091;-87
2023/09/03 02:14:38;;;;;;;6.32;5.20;;;;;;;13.77;100.00;102484.94;5035467;28;20035;-87
2023/09/03 02:17:03;;;;;;;5.13;4.50;;;;;;;13.77;100.00;102487.53;5034034;28;20083;-87
2023/09/03 02:19:28;;;;;;;7.97;5.75;;;;;;;13.76;100.00;102501.50;5034141;28;20060;-87
2023/09/03 02:21:53;;;;;;;8.38;6.57;;;;;;;13.71;100.00;102492.84;5035083;28;20029;-87
2023/09/03 02:24:19;;;;;;;7.30;6.15;;;;;;;13.71;100.00;102497.22;5034752;28;20262;-87
2023/09/03 02:26:45;;;;;;;7.45;6.20;;;;;;;13.71;100.00;102492.00;5033650;28;20159;-87
2023/09/03 02:29:11;;;;;;;8.75;6.38;;;;;;;13.72;100.00;102497.19;5035173;28;20029;-87
2023/09/03 02:31:36;;;;;;;9.30;6.88;;;;;;;13.75;100.00;102502.38;5035098;28;20043;-87
2023/09/03 02:34:03;;;;;;;10.25;6.88;;;;;;;13.74;100.00;102508.50;5035080;28;20104;-87
2023/09/03 02:36:30;;;;;;;9.77;6.93;;;;;;;13.77;100.00;102511.09;5034185;28;20049;-87
2023/09/03 02:39:00;;;;;;;8.82;7.45;;;;;;;13.78;100.00;102499.75;5035015;28;20036;-87
2023/09/03 02:41:26;;;;;;;10.30;6.88;;;;;;;13.78;100.00;102496.25;5034932;28;20031;-87
2023/09/03 02:43:52;;;;;;;8.02;6.32;;;;;;;13.76;100.00;102491.03;5034717;28;20029;-87
2023/09/03 02:46:17;;;;;;;6.55;5.70;;;;;;;13.75;100.00;102483.22;5033956;28;20041;-87
2023/09/03 02:48:42;;;;;;;6.85;5.47;;;;;;;13.73;100.00;102485.84;5034597;28;20036;-87
2023/09/03 02:51:07;;;;;;;5.57;4.72;;;;;;;13.69;100.00;102484.16;5034612;28;20064;-87
2023/09/03 02:53:33;;;;;;;7.10;5.93;;;;;;;13.69;100.00;102486.75;5015352;28;20024;-87
2023/09/03 02:55:58;;;;;;;9.00;6.47;;;;;;;13.68;100.00;102490.25;5034122;28;20184;-86
2023/09/03 02:58:24;;;;;;;8.77;6.80;;;;;;;13.67;100.00;102491.13;5034443;28;20473;-87
2023/09/03 03:00:50;;;;;;;8.50;6.53;;;;;;;13.65;100.00;102499.03;5033520;28;20033;-87
2023/09/03 03:03:15;;;;;;;8.23;6.88;;;;;;;13.64;100.00;102504.28;5033337;28;20358;-87
2023/09/03 03:05:40;;;;;;;8.80;7.25;;;;;;;13.62;100.00;102506.03;5033801;28;20064;-87
2023/09/03 03:08:06;;;;;;;8.38;6.93;;;;;;;13.59;100.00;102500.84;5034266;28;20044;-87
2023/09/03 03:10:31;;;;;;;9.88;7.60;;;;;;;13.55;100.00;102493.91;5033095;28;20084;-87
2023/09/03 03:12:56;;;;;;;8.60;7.13;;;;;;;13.54;100.00;102500.03;5033848;28;20034;-86
2023/09/03 03:15:21;;;;;;;8.65;7.18;;;;;;;13.54;100.00;102495.69;5033759;28;20436;-87
2023/09/03 03:17:47;;;;;;;9.90;7.28;;;;;;;13.53;100.00;102495.69;5033888;28;20031;-86
2023/09/03 03:20:12;;;;;;;9.23;7.30;;;;;;;13.51;100.00;102483.47;5032567;28;20426;-87
2023/09/03 03:22:37;;;;;;;8.57;6.95;;;;;;;13.51;100.00;102480.88;5033171;28;20125;-87
2023/09/03 03:25:03;;;;;;;9.07;7.53;;;;;;;13.54;100.00;102472.13;5033609;28;20025;-87
2023/09/03 03:27:29;;;;;;;9.18;7.07;;;;;;;13.56;100.00;102464.25;5033682;28;20442;-87
2023/09/03 03:29:54;;;;;;;8.68;7.18;;;;;;;13.56;100.00;102464.25;5032855;28;20025;-87
2023/09/03 03:32:19;;;;;;;8.75;6.93;;;;;;;13.56;100.00;102459.03;5033542;28;20033;-87
2023/09/03 03:34:45;;;;;;;9.20;7.40;;;;;;;13.54;100.00;102459.06;5033852;28;20029;-87
2023/09/03 03:37:10;;;;;;;9.63;7.47;;;;;;;13.53;100.00;102472.13;5033461;28;20361;-87
2023/09/03 03:39:35;;;;;;;11.02;7.35;;;;;;;13.50;100.00;102484.38;5031195;28;20039;-87
2023/09/03 03:42:01;;;;;;;10.10;7.72;;;;;;;13.49;100.00;102487.84;5033562;28;20072;-87
2023/09/03 03:44:26;;;;;;;9.38;7.57;;;;;;;13.49;100.00;102502.69;5033213;28;20106;-87
2023/09/03 03:46:51;;;;;;;8.50;7.07;;;;;;;13.47;100.00;102513.19;5033238;28;20384;-87
2023/09/03 03:49:16;;;;;;;8.18;7.10;;;;;;;13.44;100.00;102496.66;5018735;28;20030;-87
2023/09/03 03:51:42;;;;;;;8.20;6.97;;;;;;;13.40;100.00;102498.44;5033070;28;20032;-87
2023/09/03 03:54:07;;;;;;;7.47;6.32;;;;;;;13.39;100.00;102501.03;5033344;28;20056;-87
2023/09/03 03:56:32;;;;;;;7.43;6.38;;;;;;;13.38;100.00;102497.56;5033267;28;20029;-87
2023/09/03 03:58:57;;;;;;;8.55;7.05;;;;;;;13.35;100.00;102510.66;5032208;28;20473;-87
2023/09/03 04:01:23;;;;;;;8.57;7.18;;;;;;;13.30;100.00;102513.31;5031636;28;20041;-87
2023/09/03 04:03:50;;;;;;;11.05;7.60;;;;;;;13.28;100.00;102519.44;5032789;28;20017;-87
2023/09/03 04:06:16;;;;;;;8.88;7.03;;;;;;;13.28;100.00;102519.44;5032928;28;20079;-87
2023/09/03 04:08:43;;;;;;;9.75;7.43;;;;;;;13.27;100.00;102522.94;5014677;28;20053;-87
2023/09/03 04:11:10;;;;;;;9.45;7.68;;;;;;;13.24;100.00;102522.97;5015212;28;20029;-87
2023/09/03 04:13:37;;;;;;;9.52;6.88;;;;;;;13.22;100.00;102515.16;5032799;28;20535;-87
2023/09/03 04:16:16;;;;;;;10.38;6.30;;;;;;;13.22;100.00;102515.16;5033324;28;20108;-87
2023/09/03 04:18:43;;;;;;;9.35;7.50;;;;;;;13.23;100.00;102518.63;5032402;28;20029;-87
2023/09/03 04:21:08;;;;;;;10.57;6.97;;;;;;;13.21;100.00;102521.25;5032154;28;20037;-87
2023/09/03 04:23:34;;;;;;;8.48;6.95;;;;;;;13.22;100.00;102520.38;5015237;28;20025;-87
2023/09/03 04:25:59;;;;;;;8.77;6.60;;;;;;;13.23;100.00;102521.22;5032522;28;20079;-87
2023/09/03 04:28:25;;;;;;;9.02;7.13;;;;;;;13.23;100.00;102524.72;5033028;28;20025;-87
2023/09/03 04:30:55;;;;;;;7.88;6.60;;;;;;;13.23;100.00;102531.69;5030990;28;20036;-87
2023/09/03 04:33:20;;;;;;;6.40;5.63;;;;;;;13.22;100.00;102525.63;5032790;28;20469;-87
2023/09/03 04:35:46;;;;;;;7.63;6.55;;;;;;;13.21;100.00;102523.88;5032964;28;20040;-87
2023/09/03 04:38:11;;;;;;;8.60;6.72;;;;;;;13.18;100.00;102529.97;5033001;28;20025;-87
2023/09/03 04:40:37;;;;;;;7.05;6.07;;;;;;;13.16;100.00;102523.91;5031717;28;20029;-87
2023/09/03 04:43:04;;;;;;;7.43;6.05;;;;;;;13.16;100.00;102523.91;5032661;28;20140;-87
2023/09/03 04:45:30;;;;;;;8.23;6.30;;;;;;;13.14;100.00;102525.69;5032840;28;20025;-87
2023/09/03 04:47:56;;;;;;;7.75;6.30;;;;;;;13.13;100.00;102526.56;5031629;28;20044;-87
2023/09/03 04:50:22;;;;;;;8.57;6.68;;;;;;;13.14;100.00;102546.59;5032341;28;20469;-87
2023/09/03 04:52:49;;;;;;;9.10;6.85;;;;;;;13.14;100.00;102557.03;5032600;28;20036;-87
2023/09/03 04:55:15;;;;;;;8.75;6.95;;;;;;;13.13;100.00;102554.44;5031136;28;20033;-87
2023/09/03 04:57:40;;;;;;;9.32;7.13;;;;;;;13.12;100.00;102560.53;5032414;28;20037;-86
2023/09/03 05:00:07;;;;;;;8.07;6.78;;;;;;;13.13;100.00;102557.94;5013500;28;20075;-87
2023/09/03 05:02:33;;;;;;;9.70;7.80;;;;;;;13.12;100.00;102560.53;5031167;28;20017;-87
2023/09/03 05:04:58;;;;;;;9.77;7.18;;;;;;;13.11;100.00;102564.91;5031403;28;20153;-87
2023/09/03 05:07:24;;;;;;;10.75;7.85;;;;;;;13.13;100.00;102568.38;5032390;28;20159;-87
2023/09/03 05:09:52;;;;;;;10.82;7.90;;;;;;;13.14;100.00;102571.84;5031563;28;20032;-87
2023/09/03 05:12:17;;;;;;;8.60;7.22;;;;;;;13.15;100.00;102577.03;5031872;28;20033;-87
2023/09/03 05:14:43;;;;;;;10.25;6.93;;;;;;;13.15;100.00;102573.56;5031444;28;20032;-87
2023/09/03 05:17:08;;;;;;;8.50;7.38;;;;;;;13.16;100.00;102573.56;5031990;28;20037;-87
2023/09/03 05:19:33;;;;;;;8.93;6.70;;;;;;;13.16;100.00;102577.94;5031366;28;20028;-87
2023/09/03 05:21:59;;;;;;;9.00;7.15;;;;;;;13.18;100.00;102571.78;5031385;28;20421;-87
2023/09/03 05:24:24;;;;;;;11.85;7.43;;;;;;;13.20;100.00;102572.66;5032005;28;20100;-87
2023/09/03 05:26:49;;;;;;;8.52;7.07;;;;;;;13.22;100.00;102572.66;5032295;28;20419;-87
2023/09/03 05:29:15;;;;;;;9.52;7.32;;;;;;;13.24;100.00;102575.25;5031650;28;20036;-87
2023/09/03 05:31:40;;;;;;;8.45;7.03;;;;;;;13.28;100.00;102577.81;5032055;28;20033;-87
2023/09/03 05:34:05;;;;;;;9.15;7.13;;;;;;;13.31;100.00;102587.38;5031788;28;20109;-87
2023/09/03 05:36:30;;;;;;;9.07;6.93;;;;;;;13.32;100.00;102586.50;5029579;28;20021;-86
2023/09/03 05:38:56;;;;;;;9.50;7.40;;;;;;;13.33;100.00;102590.81;5032233;28;20064;-87
2023/09/03 05:41:21;;;;;;;10.77;7.45;;;;;;;13.36;100.00;102596.03;5032015;28;20506;-87
2023/09/03 05:43:46;;;;;;;9.00;7.43;;;;;;;13.37;100.00;102592.53;5032281;28;20466;-87
2023/09/03 05:46:12;;;;;;;11.05;7.60;;;;;;;13.39;100.00;102593.41;5030057;28;20040;-87
2023/09/03 05:48:37;;;;;;;9.77;7.50;;;;;;;13.42;100.00;102585.56;5031578;28;20029;-87
2023/09/03 05:51:06;;;;;;;9.93;8.07;;;;;;;13.43;100.00;102587.28;5031910;28;20025;-87
2023/09/03 05:53:35;;;;;;;10.95;8.02;;;;;;;13.47;100.00;102582.91;5032131;28;20029;-87
2023/09/03 05:56:07;;;;;;;11.52;8.27;;;;;;;13.49;100.00;102595.06;5030826;28;20025;-87
2023/09/03 05:58:33;;;;;;;11.52;8.02;;;;;;;13.50;100.00;102603.78;5032164;28;20483;-87
2023/09/03 06:01:02;;;;;;;10.02;8.10;;;;;;;13.53;100.00;102602.88;5031956;28;20030;-87
2023/09/03 06:03:27;;;;;;;10.15;8.38;;;;;;;13.55;100.00;102614.19;5033721;28;20100;-87
2023/09/03 06:05:52;;;;;;;10.77;8.73;;;;;;;13.56;100.00;102605.47;5035380;28;20119;-87
2023/09/03 06:08:17;;;;;;;11.80;8.73;;;;;;;13.58;100.00;102616.78;5033216;28;20171;-86
2023/09/03 06:10:43;;;;;;;11.75;9.23;;;;;;;13.61;100.00;102619.38;5035199;28;20021;-87
2023/09/03 06:13:09;;;;;;;11.88;8.60;;;;;;;13.65;100.00;102623.69;5034118;28;20053;-87
2023/09/03 06:15:34;;;;;;;13.02;9.13;;;;;;;13.68;100.00;102626.25;5035518;28;20061;-87
2023/09/03 06:17:59;;;;;;;11.32;9.27;;;;;;;13.71;100.00;102621.00;5034543;28;20037;-87
2023/09/03 06:20:25;;;;;;;12.85;9.50;;;;;;;13.73;100.00;102623.63;5034411;28;20375;-87
2023/09/03 06:22:50;;;;;;;12.43;10.07;;;;;;;13.75;100.00;102630.56;5035265;28;20021;-87
2023/09/03 06:25:15;;;;;;;15.10;10.00;;;;;;;13.77;100.00;102634.03;5035020;28;20033;-86
2023/09/03 06:27:41;;;;;;;13.23;10.05;;;;;;;13.81;100.00;102646.22;5034362;28;20053;-87
2023/09/03 06:30:07;;;;;;;12.38;9.60;;;;;;;13.84;100.00;102654.88;5032262;28;20268;-87
2023/09/03 06:32:32;;;;;;;13.48;9.48;;;;;;;13.86;100.00;102648.75;5034108;28;20079;-87
2023/09/03 06:34:57;;;;;;;12.20;9.68;;;;;;;13.88;100.00;102651.34;5034793;28;20078;-87
2023/09/03 06:37:22;;;;;;;14.65;10.98;;;;;;;13.91;100.00;102667.03;5033395;28;20423;-87
2023/09/03 06:39:48;;;;;;;13.60;11.10;;;;;;;13.93;100.00;102675.72;5034537;28;20033;-87
2023/09/03 06:42:13;;;;;;;13.13;10.98;;;;;;;13.94;100.00;102682.69;5034176;28;20042;-87
2023/09/03 06:44:38;;;;;;;14.57;10.85;;;;;;;13.96;100.00;102678.31;5034712;28;20044;-86
2023/09/03 06:47:04;;;;;;;17.27;11.38;;;;;;;14.00;100.00;102687.00;5033422;28;20033;-87
2023/09/03 06:49:29;;;;;;;14.32;11.77;;;;;;;14.01;100.00;102686.13;5034828;28;20473;-87
2023/09/03 06:51:54;;;;;;;16.52;11.40;;;;;;;14.03;100.00;102681.72;5032858;28;20036;-87
2023/09/03 06:54:19;;;;;;;16.70;11.20;;;;;;;14.07;100.00;102694.75;5019625;28;20423;-87
2023/09/03 06:56:45;;;;;;;15.15;11.75;;;;;;;14.10;100.00;102686.88;5038098;28;20033;-86
2023/09/03 06:59:10;;;;;;;14.30;12.02;;;;;;;14.14;100.00;102687.72;5033996;28;20022;-86
2023/09/03 07:01:35;;;;;;;15.52;11.23;;;;;;;14.16;100.00;102687.72;5033566;28;20466;-86
2023/09/03 07:04:01;;;;;;;14.18;10.88;;;;;;;14.22;100.00;102695.47;5033811;28;20097;-87
2023/09/03 07:06:26;;;;;;;16.08;10.70;;;;;;;14.28;100.00;102692.78;5033306;28;20111;-86
2023/09/03 07:08:53;;;;;;;13.95;10.93;;;;;;;14.34;100.00;102700.59;5033847;28;20024;-87
2023/09/03 07:11:18;;;;;;;14.65;11.10;;;;;;;14.40;100.00;102697.03;5031640;28;20033;-87
2023/09/03 07:13:44;;;;;;;15.13;11.88;;;;;;;14.43;100.00;102697.00;5026136;28;20032;-87
2023/09/03 07:16:09;;;;;;;14.70;10.88;;;;;;;14.47;100.00;102693.44;5028679;28;20029;-86
2023/09/03 07:18:34;;;;;;;14.63;12.15;;;;;;;14.53;100.00;102697.72;5036319;28;20021;-86
2023/09/03 07:21:02;;;;;;;16.90;12.32;;;;;;;14.57;100.00;102688.94;5031504;28;20048;-86
2023/09/03 07:23:28;;;;;;;17.30;12.25;;;;;;;14.63;100.00;102696.75;5013098;28;20077;-86
2023/09/03 07:25:53;;;;;;;15.77;13.38;;;;;;;14.68;100.00;102694.97;5013394;28;20464;-86
2023/09/03 07:28:18;;;;;;;17.17;13.68;;;;;;;14.74;100.00;102695.75;5027850;28;20028;-87
2023/09/03 07:30:43;;;;;;;20.95;14.23;;;;;;;14.80;100.00;102693.06;5028991;28;20106;-86
2023/09/03 07:33:09;;;;;;;18.40;14.07;;;;;;;14.87;100.00;102692.06;5029809;28;20393;-86
2023/09/03 07:35:34;;;;;;;17.77;13.75;;;;;;;14.93;100.00;102692.00;5029221;28;20396;-86
2023/09/03 07:37:59;;;;;;;17.75;13.63;;;;;;;14.99;100.00;102706.75;5026436;28;20116;-87
2023/09/03 07:40:24;;;;;;;15.98;12.85;;;;;;;15.08;100.00;102705.75;5030253;28;20464;-87
2023/09/03 07:42:50;;;;;;;17.00;13.23;;;;;;;15.15;100.00;102712.66;5032008;28;20025;-86
2023/09/03 07:45:15;;;;;;;15.05;12.77;;;;;;;15.21;100.00;102717.78;5032060;28;20017;-87
2023/09/03 07:47:40;;;;;;;16.00;12.93;;;;;;;15.26;100.00;102721.22;5030978;28;20037;-87
2023/09/03 07:50:06;;;;;;;16.70;12.95;;;;;;;15.30;100.00;102722.91;5031859;28;20458;-86
2023/09/03 07:52:31;;;;;;;15.60;12.13;;;;;;;15.36;100.00;102718.47;5028723;28;20116;-87
2023/09/03 07:54:57;;;;;;;15.57;12.77;;;;;;;15.43;100.00;102717.47;5014970;28;20044;-86
2023/09/03 07:57:23;;;;;;;16.10;12.68;;;;;;;15.48;100.00;102723.50;5028885;28;20033;-86
2023/09/03 07:59:52;;;;;;;16.02;13.05;;;;;;;15.54;100.00;102726.00;5029168;28;20041;-91
2023/09/03 08:02:17;;;;;;;18.40;13.48;;;;;;;15.60;100.00;102714.56;5010380;28;20035;-90
2023/09/03 08:04:42;;;;;;;18.48;14.52;;;;;;;15.66;100.00;102719.69;5031954;28;20131;-87
2023/09/03 08:07:08;;;;;;;21.60;15.65;;;;;;;15.71;100.00;102717.88;5028151;28;21551;-87
2023/09/03 08:09:33;;;;;;;18.52;15.45;;;;;;;15.76;100.00;102725.66;5029971;28;20021;-90
2023/09/03 08:11:58;;;;;;;20.42;15.30;;;;;;;15.80;100.00;102718.63;5029551;28;20017;-92
2023/09/03 08:14:24;;;;;;;19.23;15.70;;;;;;;15.85;100.00;102722.91;5031654;28;20078;-88
2023/09/03 08:16:49;;;;;;;20.65;16.52;;;;;;;15.89;100.00;102710.59;5031794;28;20027;-87
2023/09/03 08:19:15;;;;;;;19.48;15.77;;;;;;;15.96;100.00;102711.34;5033064;28;20017;-89
2023/09/03 08:21:41;;;;;;;20.10;15.98;;;;;;;16.01;100.00;102712.13;5029452;28;20061;-86
2023/09/03 08:24:07;;;;;;;20.13;16.17;;;;;;;16.07;100.00;102705.00;5029850;28;20049;-86
2023/09/03 08:26:32;;;;;;;20.80;15.55;;;;;;;16.13;100.00;102711.91;5026934;28;20032;-86
2023/09/03 08:28:58;;;;;;;19.67;15.43;;;;;;;16.20;100.00;102720.53;5031059;28;20025;-87
2023/09/03 08:31:23;;;;;;;18.50;15.20;;;;;;;16.22;100.00;102714.38;5030304;28;20033;-89
2023/09/03 08:33:53;;;;;;;18.50;14.50;;;;;;;16.29;100.00;102722.09;5029067;28;20492;-86
2023/09/03 08:36:18;;;;;;;16.63;13.63;;;;;;;16.33;100.00;102724.63;5031460;28;20029;-91
2023/09/03 08:38:44;;;;;;;18.85;14.60;;;;;;;16.39;100.00;102715.78;5030826;28;20032;-91
2023/09/03 08:41:09;;;;;;;19.23;14.15;;;;;;;16.44;100.00;102729.66;5030758;28;20036;-88
2023/09/03 08:43:36;;;;;;;16.80;14.27;;;;;;;16.50;100.00;102733.94;5030865;28;20022;-89
2023/09/03 08:46:09;;;;;;;16.80;13.65;;;;;;;16.53;100.00;102734.75;5031588;28;20033;-87
2023/09/03 08:48:35;;;;;;;15.90;13.20;;;;;;;16.60;100.00;102739.88;5029247;28;20037;-89
2023/09/03 08:51:00;;;;;;;17.08;14.35;;;;;;;16.65;100.00;102738.00;5028862;28;20061;-87
2023/09/03 08:53:26;;;;;;;17.30;14.88;;;;;;;16.74;100.00;102734.31;5029202;28;20037;-87
2023/09/03 08:55:52;;;;;;;16.08;13.20;;;;;;;16.81;100.00;102730.69;5031435;28;20037;-88
2023/09/03 08:58:18;;;;;;;18.80;14.65;;;;;;;16.88;100.00;102734.03;5028852;28;20108;-90
2023/09/03 09:00:43;;;;;;;16.58;14.40;;;;;;;16.96;100.00;102732.13;5030892;28;20144;-87
2023/09/03 09:03:11;;;;;;;18.60;14.77;;;;;;;17.03;100.00;102727.59;5027565;28;20051;-89
2023/09/03 09:05:39;;;;;;;19.88;15.40;;;;;;;17.09;100.00;102728.31;5009749;28;20090;-86
2023/09/03 09:08:05;;;;;;;18.60;15.38;;;;;;;17.18;100.00;102727.22;5024981;28;20037;-87
2023/09/03 09:10:33;;;;;;;18.50;15.35;;;;;;;17.26;100.00;102729.69;5020124;28;20037;-89
2023/09/03 09:13:03;;;;;;;18.88;15.05;;;;;;;17.33;100.00;102720.75;5021797;28;20091;-92
2023/09/03 09:15:28;;;;;;;16.83;14.70;;;;;;;17.40;100.00;102721.47;5023588;28;20065;-86
2023/09/03 09:17:54;;;;;;;17.05;13.85;;;;;;;17.43;100.00;102722.25;5028101;28;20078;-86
2023/09/03 09:20:19;;;;;;;16.52;13.80;;;;;;;17.48;100.00;102731.78;5032221;28;20035;-87
2023/09/03 09:22:46;;;;;;;17.40;13.85;;;;;;;17.54;100.00;102731.66;5042385;28;20037;-92
2023/09/03 09:25:25;;;;;;;16.98;13.73;;;;;;;17.59;99.18;102737.69;5052253;28;20029;-89
2023/09/03 09:27:55;;;;;;;16.10;13.68;;;;;;;17.63;99.25;102734.03;5033602;28;20025;-90
2023/09/03 09:30:24;;;;;;;15.40;13.07;;;;;;;17.68;96.97;102733.91;5032335;28;20018;-88
2023/09/03 09:33:05;;;;;;;14.30;12.25;;;;;;;17.75;96.46;102727.59;5013752;28;20026;-88
2023/09/03 09:35:31;;;;;;;13.18;11.52;;;;;;;17.81;96.33;102722.19;5033532;28;20081;-91
2023/09/03 09:38:06;;;;;;;13.35;11.00;;;;;;;17.90;96.63;102721.94;5033048;28;20033;-89
2023/09/03 09:40:32;;;;;;;12.23;10.00;;;;;;;17.95;93.38;102724.44;5034611;28;20480;-91
2023/09/03 09:42:59;;;;;;;10.52;8.85;;;;;;;17.99;90.92;102726.13;5036216;28;20021;-91
2023/09/03 09:45:25;;;;;;;10.25;8.73;;;;;;;18.04;92.21;102723.34;5035965;28;20029;-90
2023/09/03 09:48:04;;;;;;;11.45;9.13;;;;;;;18.07;91.41;102725.06;5035327;28;20022;-95
2023/09/03 09:50:34;;;;;;;9.30;7.93;;;;;;;18.07;90.34;102719.78;5032871;28;20029;-91
2023/09/03 09:53:00;;;;;;;9.75;7.72;;;;;;;18.09;91.39;102720.63;5048107;28;20029;-91
2023/09/03 09:55:29;;;;;;;8.52;7.43;;;;;;;18.09;89.94;102715.34;5034779;28;20036;-91
2023/09/03 09:57:55;;;;;;;8.57;6.80;;;;;;;18.09;88.96;102710.09;5016977;28;20056;-88
2023/09/03 10:00:32;;;;;;;8.90;7.03;;;;;;;18.11;89.57;102721.41;5035220;28;20057;-90
2023/09/03 10:02:57;;;;;;;8.13;6.57;;;;;;;18.12;89.61;102720.50;5023744;28;20100;-91
2023/09/03 10:05:23;;;;;;;8.82;7.07;;;;;;;18.13;88.96;102716.97;5020359;28;20063;-91
2023/09/03 10:07:49;;;;;;;9.20;7.50;;;;;;;18.15;89.87;102720.44;5020079;28;20038;-92
2023/09/03 10:10:15;;;;;;;8.75;7.03;;;;;;;18.16;90.46;102722.16;5002078;28;20197;-89
2023/09/03 10:12:40;;;;;;;7.75;6.75;;;;;;;18.19;89.96;102722.94;5018727;28;20033;-93
2023/09/03 10:15:06;;;;;;;8.25;6.50;;;;;;;18.23;90.62;102731.63;5032751;28;20047;-93
2023/09/03 10:17:33;;;;;;;8.77;6.93;;;;;;;18.29;94.28;102728.81;5036035;28;20151;-91
2023/09/03 10:20:04;;;;;;;9.57;6.82;;;;;;;18.31;92.51;102729.63;5030768;28;20378;-90
2023/09/03 10:22:30;;;;;;;9.65;7.13;;;;;;;18.33;87.66;102725.19;5031014;28;20029;-90
2023/09/03 10:25:00;;;;;;;10.80;7.35;;;;;;;18.37;86.85;102722.47;5034399;28;20033;-92
2023/09/03 10:27:34;;;;;;;9.70;6.65;;;;;;;18.42;86.45;102717.94;5032196;28;20112;-91
2023/09/03 10:30:04;;;;;;;10.68;7.22;;;;;;;18.48;87.32;102712.47;5031176;28;20033;-89
2023/09/03 10:32:31;;;;;;;9.15;7.18;;;;;;;18.57;90.55;102708.69;5032669;28;20092;-90
2023/09/03 10:34:57;;;;;;;10.73;7.35;;;;;;;18.62;86.48;102712.06;5032804;28;20059;-90
2023/09/03 10:37:36;;;;;;;8.13;6.97;;;;;;;18.71;90.07;102714.41;5032902;28;20025;-91
2023/09/03 10:40:20;;;;;;;9.43;7.80;;;;;;;18.77;88.14;102708.97;5028888;28;20029;-89
2023/09/03 10:42:46;;;;;;;9.18;8.13;;;;;;;18.83;87.53;102717.63;5032379;28;20017;-90
2023/09/03 10:45:14;;;;;;;12.45;7.53;;;;;;;18.87;86.67;102720.09;5030892;28;20043;-91
2023/09/03 10:47:59;;;;;;;10.23;7.50;;;;;;;18.92;86.07;102722.59;5031592;28;20029;-90
2023/09/03 10:50:40;;;;;;;9.65;7.40;;;;;;;18.94;85.90;102724.31;5029172;28;20033;-93
2023/09/03 10:53:06;;;;;;;9.18;7.50;;;;;;;18.96;86.31;102733.03;5032032;28;20232;-91
2023/09/03 10:55:31;;;;;;;9.30;7.53;;;;;;;19.00;85.15;102730.28;5035576;28;20720;-89
2023/09/03 10:58:16;;;;;;;11.10;7.95;;;;;;;19.05;85.70;102731.03;5031720;28;20037;-90
2023/09/03 11:01:26;;;;;;;7.93;6.72;;;;;;;19.10;83.74;102732.59;5014819;28;20025;-90
2023/09/03 11:03:52;;;;;;;8.60;6.75;;;;;;;19.17;82.23;102733.25;5004463;28;20196;-90
2023/09/03 11:06:20;;;;;;;8.68;7.03;;;;;;;19.21;81.50;102734.06;5030522;28;20139;-93
2023/09/03 11:08:58;;;;;;;8.75;7.30;;;;;;;19.25;81.21;102722.47;5033263;28;20381;-90
2023/09/03 11:11:24;;;;;;;8.77;6.82;;;;;;;19.29;81.08;102725.88;5032236;28;20020;-91